sensor_id;sensor_type;location;lat;lon;timestamp;pressure;altitude;pressure_sealevel;temperature;humidity
6136;BME280;24008;42.664;23.372;2023-09-12T00:01:10;94936.88;;;15.45;63.70
6136;BME280;24008;42.664;23.372;2023-09-12T00:03:36;94940.88;;;15.39;62.76
6136;BME280;24008;42.664;23.372;2023-09-12T00:06:02;94939.94;;;15.40;61.78
6136;BME280;24008;42.664;23.372;2023-09-12T00:08:29;94937.84;;;15.44;62.27
6136;BME280;24008;42.664;23.372;2023-09-12T00:11:01;94889.31;;;15.00;62.04
6136;BME280;24008;42.664;23.372;2023-09-12T00:13:30;94946.69;;;15.41;61.96
6136;BME280;24008;42.664;23.372;2023-09-12T00:15:57;94941.69;;;15.40;62.17
6136;BME280;24008;42.664;23.372;2023-09-12T00:18:24;94916.47;;;15.19;62.67
6136;BME280;24008;42.664;23.372;2023-09-12T00:20:51;94891.88;;;15.00;62.78
6136;BME280;24008;42.664;23.372;2023-09-12T00:23:18;94939.16;;;15.32;62.98
6136;BME280;24008;42.664;23.372;2023-09-12T00:25:45;94942.03;;;15.29;63.64
6136;BME280;24008;42.664;23.372;2023-09-12T00:28:11;94977.44;;;15.27;63.24
6136;BME280;24008;42.664;23.372;2023-09-12T00:30:39;94924.19;;;15.11;64.06
6136;BME280;24008;42.664;23.372;2023-09-12T00:33:06;94903.81;;;14.93;64.14
6136;BME280;24008;42.664;23.372;2023-09-12T00:35:33;94929.84;;;14.98;65.06
6136;BME280;24008;42.664;23.372;2023-09-12T00:38:00;94887.72;;;14.75;65.40
6136;BME280;24008;42.664;23.372;2023-09-12T00:40:26;94951.41;;;15.13;66.21
6136;BME280;24008;42.664;23.372;2023-09-12T00:42:54;94945.94;;;15.08;66.76
6136;BME280;24008;42.664;23.372;2023-09-12T00:45:20;94857.84;;;14.41;67.26
6136;BME280;24008;42.664;23.372;2023-09-12T00:47:49;94954.31;;;15.02;68.31
6136;BME280;24008;42.664;23.372;2023-09-12T00:50:16;94918.28;;;14.78;68.71
6136;BME280;24008;42.664;23.372;2023-09-12T00:52:45;94967.66;;;14.98;68.68
6136;BME280;24008;42.664;23.372;2023-09-12T00:55:12;94963.97;;;15.00;69.31
6136;BME280;24008;42.664;23.372;2023-09-12T00:57:39;94937.59;;;14.74;69.15
6136;BME280;24008;42.664;23.372;2023-09-12T01:00:07;94947.56;;;14.77;69.26
6136;BME280;24008;42.664;23.372;2023-09-12T01:02:38;94977.16;;;14.97;69.27
6136;BME280;24008;42.664;23.372;2023-09-12T01:05:07;94974.25;;;14.92;69.05
6136;BME280;24008;42.664;23.372;2023-09-12T01:07:36;94820.84;;;13.94;68.85
6136;BME280;24008;42.664;23.372;2023-09-12T01:10:03;94951.44;;;14.73;68.75
6136;BME280;24008;42.664;23.372;2023-09-12T01:12:30;94978.13;;;14.88;68.11
6136;BME280;24008;42.664;23.372;2023-09-12T01:14:57;94911.88;;;14.58;67.23
6136;BME280;24008;42.664;23.372;2023-09-12T01:17:24;94958.00;;;14.92;66.06
6136;BME280;24008;42.664;23.372;2023-09-12T01:19:51;94907.19;;;14.61;65.88
6136;BME280;24008;42.664;23.372;2023-09-12T01:22:40;94975.22;;;14.99;64.81
6136;BME280;24008;42.664;23.372;2023-09-12T01:28:05;94782.63;;;13.83;63.73
6136;BME280;24008;42.664;23.372;2023-09-12T01:30:35;94942.09;;;14.80;64.41
6136;BME280;24008;42.664;23.372;2023-09-12T01:33:03;94979.72;;;14.97;64.22
6136;BME280;24008;42.664;23.372;2023-09-12T01:35:30;94877.59;;;14.33;64.07
6136;BME280;24008;42.664;23.372;2023-09-12T01:37:57;94798.03;;;13.83;64.16
6136;BME280;24008;42.664;23.372;2023-09-12T01:40:30;94857.81;;;14.17;64.34
6136;BME280;24008;42.664;23.372;2023-09-12T01:42:59;94848.97;;;14.12;64.69
6136;BME280;24008;42.664;23.372;2023-09-12T01:45:28;94982.63;;;14.86;64.49
6136;BME280;24008;42.664;23.372;2023-09-12T01:47:55;94977.81;;;14.83;64.56
6136;BME280;24008;42.664;23.372;2023-09-12T01:50:23;94873.53;;;14.14;65.39
6136;BME280;24008;42.664;23.372;2023-09-12T01:52:53;94980.69;;;14.72;66.11
6136;BME280;24008;42.664;23.372;2023-09-12T01:55:20;94822.41;;;13.62;66.97
6136;BME280;24008;42.664;23.372;2023-09-12T01:57:47;94983.56;;;14.53;68.09
6136;BME280;24008;42.664;23.372;2023-09-12T02:00:17;94983.22;;;14.39;69.15
6136;BME280;24008;42.664;23.372;2023-09-12T02:02:45;94847.72;;;13.49;69.87
6136;BME280;24008;42.664;23.372;2023-09-12T02:05:15;94986.03;;;14.20;70.78
6136;BME280;24008;42.664;23.372;2023-09-12T02:07:44;94852.75;;;13.25;71.64
6136;BME280;24008;42.664;23.372;2023-09-12T02:10:11;94989.94;;;13.90;72.51
6136;BME280;24008;42.664;23.372;2023-09-12T02:12:39;94903.13;;;13.26;73.41
6136;BME280;24008;42.664;23.372;2023-09-12T02:15:06;94995.81;;;13.75;73.14
6136;BME280;24008;42.664;23.372;2023-09-12T02:17:33;94994.22;;;13.74;73.51
6136;BME280;24008;42.664;23.372;2023-09-12T02:20:01;94990.47;;;13.68;73.97
6136;BME280;24008;42.664;23.372;2023-09-12T02:22:30;94988.06;;;13.66;74.37
6136;BME280;24008;42.664;23.372;2023-09-12T02:24:56;94894.13;;;13.04;74.94
6136;BME280;24008;42.664;23.372;2023-09-12T02:27:23;94889.75;;;12.88;75.14
6136;BME280;24008;42.664;23.372;2023-09-12T02:29:50;95006.31;;;13.55;75.30
6136;BME280;24008;42.664;23.372;2023-09-12T02:32:17;94924.56;;;13.17;75.58
6136;BME280;24008;42.664;23.372;2023-09-12T02:34:43;94953.19;;;13.30;76.10
6136;BME280;24008;42.664;23.372;2023-09-12T02:37:11;94959.00;;;13.32;76.18
6136;BME280;24008;42.664;23.372;2023-09-12T02:39:38;94999.88;;;13.51;76.48
6136;BME280;24008;42.664;23.372;2023-09-12T02:42:05;94986.38;;;13.49;77.05
6136;BME280;24008;42.664;23.372;2023-09-12T02:44:32;94990.19;;;13.45;77.58
6136;BME280;24008;42.664;23.372;2023-09-12T02:46:59;94951.84;;;13.18;77.46
6136;BME280;24008;42.664;23.372;2023-09-12T02:49:25;94988.19;;;13.31;78.07
6136;BME280;24008;42.664;23.372;2023-09-12T02:51:52;94872.09;;;12.42;78.93
6136;BME280;24008;42.664;23.372;2023-09-12T02:54:20;94919.69;;;12.62;79.49
6136;BME280;24008;42.664;23.372;2023-09-12T02:56:47;94838.28;;;12.03;79.78
6136;BME280;24008;42.664;23.372;2023-09-12T02:59:14;94983.09;;;12.95;80.48
6136;BME280;24008;42.664;23.372;2023-09-12T03:01:40;94985.00;;;12.93;80.46
6136;BME280;24008;42.664;23.372;2023-09-12T03:04:07;94997.81;;;12.93;80.70
6136;BME280;24008;42.664;23.372;2023-09-12T03:06:34;94869.63;;;12.14;80.67
6136;BME280;24008;42.664;23.372;2023-09-12T03:09:01;94996.53;;;12.89;80.90
6136;BME280;24008;42.664;23.372;2023-09-12T03:11:29;94903.31;;;12.19;80.86
6136;BME280;24008;42.664;23.372;2023-09-12T03:13:56;94995.44;;;12.74;82.41
6136;BME280;24008;42.664;23.372;2023-09-12T03:16:23;94872.97;;;11.97;82.43
6136;BME280;24008;42.664;23.372;2023-09-12T03:18:50;94920.50;;;12.27;82.48
6136;BME280;24008;42.664;23.372;2023-09-12T03:21:17;94989.78;;;12.71;82.25
6136;BME280;24008;42.664;23.372;2023-09-12T03:23:43;94988.84;;;12.72;82.37
6136;BME280;24008;42.664;23.372;2023-09-12T03:26:10;94997.34;;;12.72;82.83
6136;BME280;24008;42.664;23.372;2023-09-12T03:28:39;94962.53;;;12.52;82.80
6136;BME280;24008;42.664;23.372;2023-09-12T03:31:08;94999.63;;;12.75;82.99
6136;BME280;24008;42.664;23.372;2023-09-12T03:33:37;94946.44;;;12.42;83.00
6136;BME280;24008;42.664;23.372;2023-09-12T03:36:04;94873.09;;;11.96;83.16
6136;BME280;24008;42.664;23.372;2023-09-12T03:38:31;94989.88;;;12.61;82.76
6136;BME280;24008;42.664;23.372;2023-09-12T03:40:58;94757.59;;;11.18;82.98
6136;BME280;24008;42.664;23.372;2023-09-12T03:43:25;95026.22;;;12.74;83.20
6136;BME280;24008;42.664;23.372;2023-09-12T03:45:53;95013.75;;;12.79;82.79
6136;BME280;24008;42.664;23.372;2023-09-12T03:48:20;95002.97;;;12.76;83.48
6136;BME280;24008;42.664;23.372;2023-09-12T03:50:47;95011.09;;;12.71;84.08
6136;BME280;24008;42.664;23.372;2023-09-12T03:53:14;95004.00;;;12.65;84.16
6136;BME280;24008;42.664;23.372;2023-09-12T03:55:41;94953.28;;;12.23;83.67
6136;BME280;24008;42.664;23.372;2023-09-12T03:58:08;95005.53;;;12.58;83.94
6136;BME280;24008;42.664;23.372;2023-09-12T04:00:35;94975.47;;;12.33;85.32
6136;BME280;24008;42.664;23.372;2023-09-12T04:03:03;95005.09;;;12.45;85.03
6136;BME280;24008;42.664;23.372;2023-09-12T04:05:30;95004.59;;;12.41;85.70
6136;BME280;24008;42.664;23.372;2023-09-12T04:07:57;95012.97;;;12.34;85.94
6136;BME280;24008;42.664;23.372;2023-09-12T04:10:24;95003.69;;;12.33;85.92
6136;BME280;24008;42.664;23.372;2023-09-12T04:12:50;95009.59;;;12.33;85.10
6136;BME280;24008;42.664;23.372;2023-09-12T04:15:17;94974.53;;;12.16;83.20
6136;BME280;24008;42.664;23.372;2023-09-12T04:17:44;95001.28;;;12.49;82.13
6136;BME280;24008;42.664;23.372;2023-09-12T04:20:12;95006.66;;;12.55;82.20
6136;BME280;24008;42.664;23.372;2023-09-12T04:22:40;95008.47;;;12.63;79.71
6136;BME280;24008;42.664;23.372;2023-09-12T04:25:07;95013.81;;;12.70;78.66
6136;BME280;24008;42.664;23.372;2023-09-12T04:27:34;95005.41;;;12.77;77.72
6136;BME280;24008;42.664;23.372;2023-09-12T04:30:00;94905.88;;;12.19;77.43
6136;BME280;24008;42.664;23.372;2023-09-12T04:32:28;94888.50;;;12.13;77.24
6136;BME280;24008;42.664;23.372;2023-09-12T04:34:55;94983.19;;;12.86;76.81
6136;BME280;24008;42.664;23.372;2023-09-12T04:37:23;95009.19;;;13.09;77.48
6136;BME280;24008;42.664;23.372;2023-09-12T04:39:50;94973.13;;;12.92;76.02
6136;BME280;24008;42.664;23.372;2023-09-12T04:42:17;95018.41;;;13.19;76.87
6136;BME280;24008;42.664;23.372;2023-09-12T04:44:44;95014.91;;;13.20;77.37
6136;BME280;24008;42.664;23.372;2023-09-12T04:47:10;94870.06;;;12.27;76.71
6136;BME280;24008;42.664;23.372;2023-09-12T04:49:38;94904.47;;;12.07;76.17
6136;BME280;24008;42.664;23.372;2023-09-12T04:52:05;94950.59;;;12.78;76.29
6136;BME280;24008;42.664;23.372;2023-09-12T04:54:33;95017.59;;;13.37;76.15
6136;BME280;24008;42.664;23.372;2023-09-12T04:57:00;94983.44;;;13.18;76.25
6136;BME280;24008;42.664;23.372;2023-09-12T04:59:27;95020.06;;;13.46;76.22
6136;BME280;24008;42.664;23.372;2023-09-12T05:01:53;94972.69;;;13.15;76.30
6136;BME280;24008;42.664;23.372;2023-09-12T05:04:20;94997.91;;;13.45;76.58
6136;BME280;24008;42.664;23.372;2023-09-12T05:06:47;94889.66;;;12.80;76.43
6136;BME280;24008;42.664;23.372;2023-09-12T05:09:14;94989.94;;;13.56;76.34
6136;BME280;24008;42.664;23.372;2023-09-12T05:11:42;94989.06;;;13.74;75.02
6136;BME280;24008;42.664;23.372;2023-09-12T05:14:09;94974.25;;;13.67;74.20
6136;BME280;24008;42.664;23.372;2023-09-12T05:16:36;95025.84;;;14.16;74.24
6136;BME280;24008;42.664;23.372;2023-09-12T05:19:03;94960.56;;;14.01;72.50
6136;BME280;24008;42.664;23.372;2023-09-12T05:21:30;95011.22;;;14.59;71.08
6136;BME280;24008;42.664;23.372;2023-09-12T05:23:57;95004.63;;;14.64;68.19
6136;BME280;24008;42.664;23.372;2023-09-12T05:26:23;94917.94;;;14.24;66.13
6136;BME280;24008;42.664;23.372;2023-09-12T05:28:52;94995.34;;;15.04;65.46
6136;BME280;24008;42.664;23.372;2023-09-12T05:31:19;94991.41;;;15.48;62.92
6136;BME280;24008;42.664;23.372;2023-09-12T05:33:46;95059.38;;;16.19;61.48
6136;BME280;24008;42.664;23.372;2023-09-12T05:36:14;94574.09;;;13.47;60.06
6136;BME280;24008;42.664;23.372;2023-09-12T05:38:41;95018.53;;;16.39;60.49
6136;BME280;24008;42.664;23.372;2023-09-12T05:41:07;95024.59;;;16.46;60.52
6136;BME280;24008;42.664;23.372;2023-09-12T05:43:34;94884.84;;;15.58;60.08
6136;BME280;24008;42.664;23.372;2023-09-12T05:46:03;95035.47;;;16.41;61.01
6136;BME280;24008;42.664;23.372;2023-09-12T05:48:30;95032.81;;;16.49;61.45
6136;BME280;24008;42.664;23.372;2023-09-12T05:50:56;95030.25;;;16.49;62.52
6136;BME280;24008;42.664;23.372;2023-09-12T05:53:23;94952.56;;;16.13;62.82
6136;BME280;24008;42.664;23.372;2023-09-12T05:55:50;94974.63;;;17.15;61.09
6136;BME280;24008;42.664;23.372;2023-09-12T05:58:17;95036.81;;;18.54;57.90
6136;BME280;24008;42.664;23.372;2023-09-12T06:00:44;95022.56;;;19.22;55.37
6136;BME280;24008;42.664;23.372;2023-09-12T06:03:15;94931.41;;;19.68;52.51
6136;BME280;24008;42.664;23.372;2023-09-12T06:05:42;95032.59;;;21.24;49.36
6136;BME280;24008;42.664;23.372;2023-09-12T06:08:09;94977.13;;;21.76;46.30
6136;BME280;24008;42.664;23.372;2023-09-12T06:10:36;94884.03;;;21.91;44.40
6136;BME280;24008;42.664;23.372;2023-09-12T06:13:03;94932.09;;;23.28;42.74
6136;BME280;24008;42.664;23.372;2023-09-12T06:15:29;94990.59;;;24.43;40.43
6136;BME280;24008;42.664;23.372;2023-09-12T06:17:56;95040.66;;;24.88;38.68
6136;BME280;24008;42.664;23.372;2023-09-12T06:20:24;94920.06;;;24.55;38.67
6136;BME280;24008;42.664;23.372;2023-09-12T06:22:51;94957.69;;;25.48;37.21
6136;BME280;24008;42.664;23.372;2023-09-12T06:25:18;95043.50;;;26.51;36.52
6136;BME280;24008;42.664;23.372;2023-09-12T06:27:45;95043.84;;;26.83;35.56
6136;BME280;24008;42.664;23.372;2023-09-12T06:30:13;95042.13;;;26.89;34.86
6136;BME280;24008;42.664;23.372;2023-09-12T06:32:39;95015.28;;;26.70;34.43
6136;BME280;24008;42.664;23.372;2023-09-12T06:35:07;95049.28;;;27.05;33.74
6136;BME280;24008;42.664;23.372;2023-09-12T06:37:37;95057.34;;;27.15;34.35
6136;BME280;24008;42.664;23.372;2023-09-12T06:40:06;94998.34;;;26.89;33.75
6136;BME280;24008;42.664;23.372;2023-09-12T06:42:33;94970.66;;;26.82;34.18
6136;BME280;24008;42.664;23.372;2023-09-12T06:45:00;95006.63;;;27.27;34.02
6136;BME280;24008;42.664;23.372;2023-09-12T06:47:27;94813.31;;;26.65;32.10
6136;BME280;24008;42.664;23.372;2023-09-12T06:49:53;95064.91;;;27.74;31.39
6136;BME280;24008;42.664;23.372;2023-09-12T06:52:20;95054.53;;;27.67;32.65
6136;BME280;24008;42.664;23.372;2023-09-12T06:54:48;94740.97;;;25.34;32.16
6136;BME280;24008;42.664;23.372;2023-09-12T06:57:15;94873.41;;;26.38;32.66
6136;BME280;24008;42.664;23.372;2023-09-12T06:59:42;95062.66;;;27.82;31.88
6136;BME280;24008;42.664;23.372;2023-09-12T07:02:09;94926.09;;;27.49;31.54
6136;BME280;24008;42.664;23.372;2023-09-12T07:04:38;94982.34;;;28.25;30.87
6136;BME280;24008;42.664;23.372;2023-09-12T07:07:04;95017.75;;;28.83;30.89
6136;BME280;24008;42.664;23.372;2023-09-12T07:09:31;95017.63;;;28.73;29.97
6136;BME280;24008;42.664;23.372;2023-09-12T07:12:00;95029.25;;;28.55;30.39
6136;BME280;24008;42.664;23.372;2023-09-12T07:14:27;94937.91;;;27.63;30.26
6136;BME280;24008;42.664;23.372;2023-09-12T07:16:55;94967.44;;;28.14;29.95
6136;BME280;24008;42.664;23.372;2023-09-12T07:19:21;95041.13;;;28.57;30.33
6136;BME280;24008;42.664;23.372;2023-09-12T07:21:49;94909.94;;;27.95;29.97
6136;BME280;24008;42.664;23.372;2023-09-12T07:24:16;95059.22;;;29.46;28.95
6136;BME280;24008;42.664;23.372;2023-09-12T07:26:43;94971.56;;;28.70;29.42
6136;BME280;24008;42.664;23.372;2023-09-12T07:29:13;95060.53;;;29.81;28.48
6136;BME280;24008;42.664;23.372;2023-09-12T07:31:39;95066.59;;;29.49;28.71
6136;BME280;24008;42.664;23.372;2023-09-12T07:34:06;95055.50;;;29.20;28.24
6136;BME280;24008;42.664;23.372;2023-09-12T07:36:33;94940.31;;;28.25;28.65
6136;BME280;24008;42.664;23.372;2023-09-12T07:39:00;95006.13;;;28.57;29.32
6136;BME280;24008;42.664;23.372;2023-09-12T07:41:28;95063.63;;;29.41;28.93
6136;BME280;24008;42.664;23.372;2023-09-12T07:43:55;95050.00;;;28.95;29.60
6136;BME280;24008;42.664;23.372;2023-09-12T07:46:23;95060.00;;;29.79;28.84
6136;BME280;24008;42.664;23.372;2023-09-12T07:48:50;94897.78;;;28.82;28.18
6136;BME280;24008;42.664;23.372;2023-09-12T07:51:18;95050.22;;;30.11;28.61
6136;BME280;24008;42.664;23.372;2023-09-12T07:53:45;94964.78;;;29.65;28.10
6136;BME280;24008;42.664;23.372;2023-09-12T07:56:11;95065.03;;;30.69;27.58
6136;BME280;24008;42.664;23.372;2023-09-12T07:58:38;95058.06;;;30.48;28.07
6136;BME280;24008;42.664;23.372;2023-09-12T08:01:05;94999.78;;;29.97;28.13
6136;BME280;24008;42.664;23.372;2023-09-12T08:03:35;94888.97;;;29.77;27.61
6136;BME280;24008;42.664;23.372;2023-09-12T08:06:02;95051.75;;;31.11;26.13
6136;BME280;24008;42.664;23.372;2023-09-12T08:08:29;95006.28;;;31.04;25.86
6136;BME280;24008;42.664;23.372;2023-09-12T08:10:57;95060.00;;;31.61;25.34
6136;BME280;24008;42.664;23.372;2023-09-12T08:13:26;95003.19;;;31.38;24.88
6136;BME280;24008;42.664;23.372;2023-09-12T08:15:54;95050.22;;;31.51;25.29
6136;BME280;24008;42.664;23.372;2023-09-12T08:18:20;95054.69;;;31.56;25.27
6136;BME280;24008;42.664;23.372;2023-09-12T08:20:49;95016.94;;;30.52;25.67
6136;BME280;24008;42.664;23.372;2023-09-12T08:23:16;95061.59;;;30.64;26.37
6136;BME280;24008;42.664;23.372;2023-09-12T08:25:42;95043.28;;;30.42;26.82
6136;BME280;24008;42.664;23.372;2023-09-12T08:28:09;95042.22;;;30.48;26.51
6136;BME280;24008;42.664;23.372;2023-09-12T08:30:36;95053.06;;;31.14;25.92
6136;BME280;24008;42.664;23.372;2023-09-12T08:33:03;95021.41;;;31.39;24.66
6136;BME280;24008;42.664;23.372;2023-09-12T08:35:32;94963.53;;;31.18;24.60
6136;BME280;24008;42.664;23.372;2023-09-12T08:38:00;94650.34;;;28.61;24.09
6136;BME280;24008;42.664;23.372;2023-09-12T08:40:27;95055.06;;;30.92;24.91
6136;BME280;24008;42.664;23.372;2023-09-12T08:42:57;95008.78;;;30.54;25.12
6136;BME280;24008;42.664;23.372;2023-09-12T08:45:25;94908.06;;;29.99;24.87
6136;BME280;24008;42.664;23.372;2023-09-12T08:47:53;94997.47;;;30.63;24.66
6136;BME280;24008;42.664;23.372;2023-09-12T08:50:21;95034.78;;;30.97;25.26
6136;BME280;24008;42.664;23.372;2023-09-12T08:52:48;95036.19;;;31.15;25.02
6136;BME280;24008;42.664;23.372;2023-09-12T08:55:17;94990.22;;;31.41;23.68
6136;BME280;24008;42.664;23.372;2023-09-12T08:57:48;94948.97;;;30.90;25.22
6136;BME280;24008;42.664;23.372;2023-09-12T09:00:16;95030.38;;;31.59;24.75
6136;BME280;24008;42.664;23.372;2023-09-12T09:02:44;95037.28;;;31.70;24.47
6136;BME280;24008;42.664;23.372;2023-09-12T09:05:11;95014.81;;;31.72;23.88
6136;BME280;24008;42.664;23.372;2023-09-12T09:07:40;94975.69;;;31.49;23.85
6136;BME280;24008;42.664;23.372;2023-09-12T09:10:09;95001.31;;;31.84;24.33
6136;BME280;24008;42.664;23.372;2023-09-12T09:12:39;95000.78;;;31.97;24.00
6136;BME280;24008;42.664;23.372;2023-09-12T09:15:23;94850.22;;;31.52;23.53
6136;BME280;24008;42.664;23.372;2023-09-12T09:17:51;94929.16;;;31.83;24.70
6136;BME280;24008;42.664;23.372;2023-09-12T09:20:25;94961.09;;;32.07;23.85
6136;BME280;24008;42.664;23.372;2023-09-12T09:23:00;94882.66;;;31.67;23.58
6136;BME280;24008;42.664;23.372;2023-09-12T09:25:30;94998.31;;;32.31;23.36
6136;BME280;24008;42.664;23.372;2023-09-12T09:27:58;95021.47;;;32.70;22.95
6136;BME280;24008;42.664;23.372;2023-09-12T09:30:40;95019.25;;;33.36;22.49
6136;BME280;24008;42.664;23.372;2023-09-12T09:33:07;94975.78;;;33.37;21.88
6136;BME280;24008;42.664;23.372;2023-09-12T09:35:35;94991.44;;;32.95;22.47
6136;BME280;24008;42.664;23.372;2023-09-12T09:38:03;95009.00;;;32.70;22.88
6136;BME280;24008;42.664;23.372;2023-09-12T09:40:32;95019.84;;;33.23;22.47
6136;BME280;24008;42.664;23.372;2023-09-12T09:43:02;94972.16;;;33.23;22.23
6136;BME280;24008;42.664;23.372;2023-09-12T09:45:30;95016.16;;;33.24;22.12
6136;BME280;24008;42.664;23.372;2023-09-12T09:47:57;94986.31;;;32.54;22.56
6136;BME280;24008;42.664;23.372;2023-09-12T09:50:25;95006.53;;;32.35;23.07
6136;BME280;24008;42.664;23.372;2023-09-12T09:52:54;95000.34;;;32.60;22.49
6136;BME280;24008;42.664;23.372;2023-09-12T09:55:21;95002.59;;;32.86;22.54
6136;BME280;24008;42.664;23.372;2023-09-12T09:57:48;94961.25;;;32.90;22.05
6136;BME280;24008;42.664;23.372;2023-09-12T10:00:19;94961.00;;;32.87;21.54
6136;BME280;24008;42.664;23.372;2023-09-12T10:02:48;94990.47;;;33.24;21.93
6136;BME280;24008;42.664;23.372;2023-09-12T10:05:16;94997.78;;;33.38;21.60
6136;BME280;24008;42.664;23.372;2023-09-12T10:07:47;94963.13;;;33.29;20.68
6136;BME280;24008;42.664;23.372;2023-09-12T10:10:16;94936.50;;;32.61;21.81
6136;BME280;24008;42.664;23.372;2023-09-12T10:12:49;94981.41;;;32.86;21.99
6136;BME280;24008;42.664;23.372;2023-09-12T10:15:19;94985.19;;;32.75;22.54
6136;BME280;24008;42.664;23.372;2023-09-12T10:17:53;94936.69;;;32.31;22.68
6136;BME280;24008;42.664;23.372;2023-09-12T10:20:25;94976.31;;;32.46;22.11
6136;BME280;24008;42.664;23.372;2023-09-12T10:22:57;94859.59;;;31.88;22.60
6136;BME280;24008;42.664;23.372;2023-09-12T10:25:27;94923.66;;;32.44;23.02
6136;BME280;24008;42.664;23.372;2023-09-12T10:27:55;94964.28;;;32.74;22.62
6136;BME280;24008;42.664;23.372;2023-09-12T10:30:24;94960.34;;;32.61;22.64
6136;BME280;24008;42.664;23.372;2023-09-12T10:32:52;94963.63;;;32.43;23.11
6136;BME280;24008;42.664;23.372;2023-09-12T10:35:19;94957.53;;;32.47;23.82
6136;BME280;24008;42.664;23.372;2023-09-12T10:37:48;94847.63;;;32.06;22.15
6136;BME280;24008;42.664;23.372;2023-09-12T10:40:16;94966.09;;;32.83;22.13
6136;BME280;24008;42.664;23.372;2023-09-12T10:42:44;94848.59;;;32.25;22.20
6136;BME280;24008;42.664;23.372;2023-09-12T10:45:12;94904.88;;;32.46;22.55
6136;BME280;24008;42.664;23.372;2023-09-12T10:47:41;94946.56;;;32.64;22.54
6136;BME280;24008;42.664;23.372;2023-09-12T10:50:09;94888.28;;;32.30;22.51
6136;BME280;24008;42.664;23.372;2023-09-12T10:52:36;94950.22;;;32.78;22.34
6136;BME280;24008;42.664;23.372;2023-09-12T10:55:06;94947.75;;;32.92;22.91
6136;BME280;24008;42.664;23.372;2023-09-12T10:57:33;94928.56;;;32.66;22.85
6136;BME280;24008;42.664;23.372;2023-09-12T11:00:11;94914.19;;;32.33;23.01
6136;BME280;24008;42.664;23.372;2023-09-12T11:02:40;94938.31;;;32.22;23.92
6136;BME280;24008;42.664;23.372;2023-09-12T11:05:37;94923.53;;;32.10;23.74
6136;BME280;24008;42.664;23.372;2023-09-12T11:08:04;94926.00;;;31.66;24.84
6136;BME280;24008;42.664;23.372;2023-09-12T11:10:31;94917.84;;;31.17;25.57
6136;BME280;24008;42.664;23.372;2023-09-12T11:12:59;94917.81;;;30.66;25.91
6136;BME280;24008;42.664;23.372;2023-09-12T11:15:26;94873.13;;;29.72;26.56
6136;BME280;24008;42.664;23.372;2023-09-12T11:18:02;94923.56;;;29.49;27.17
6136;BME280;24008;42.664;23.372;2023-09-12T11:20:50;94920.81;;;29.33;27.03
6136;BME280;24008;42.664;23.372;2023-09-12T11:23:19;94713.75;;;27.74;27.46
6136;BME280;24008;42.664;23.372;2023-09-12T11:25:46;94870.66;;;28.54;27.49
6136;BME280;24008;42.664;23.372;2023-09-12T11:28:13;94907.13;;;28.46;28.36
6136;BME280;24008;42.664;23.372;2023-09-12T11:30:55;94865.84;;;27.98;28.68
6136;BME280;24008;42.664;23.372;2023-09-12T11:33:25;94724.63;;;26.79;28.63
6136;BME280;24008;42.664;23.372;2023-09-12T11:35:53;94820.41;;;27.75;28.56
6136;BME280;24008;42.664;23.372;2023-09-12T11:38:26;94916.88;;;28.23;28.55
6136;BME280;24008;42.664;23.372;2023-09-12T11:40:54;94857.75;;;27.82;28.00
6136;BME280;24008;42.664;23.372;2023-09-12T11:43:22;94852.50;;;27.82;28.11
6136;BME280;24008;42.664;23.372;2023-09-12T11:45:50;94906.47;;;28.12;27.69
6136;BME280;24008;42.664;23.372;2023-09-12T11:48:18;94846.72;;;27.80;27.94
6136;BME280;24008;42.664;23.372;2023-09-12T11:50:53;94896.44;;;28.09;28.34
6136;BME280;24008;42.664;23.372;2023-09-12T11:53:21;94844.69;;;27.87;28.51
6136;BME280;24008;42.664;23.372;2023-09-12T11:55:52;94889.75;;;28.18;28.37
6136;BME280;24008;42.664;23.372;2023-09-12T11:58:20;94883.47;;;28.02;28.09
6136;BME280;24008;42.664;23.372;2023-09-12T12:00:48;94878.78;;;28.26;28.47
6136;BME280;24008;42.664;23.372;2023-09-12T12:03:17;94886.19;;;28.29;28.19
6136;BME280;24008;42.664;23.372;2023-09-12T12:05:45;94880.13;;;28.28;28.10
6136;BME280;24008;42.664;23.372;2023-09-12T12:08:14;94880.50;;;28.37;28.52
6136;BME280;24008;42.664;23.372;2023-09-12T12:10:42;94849.63;;;28.27;28.12
6136;BME280;24008;42.664;23.372;2023-09-12T12:13:11;94880.88;;;28.51;28.47
6136;BME280;24008;42.664;23.372;2023-09-12T12:15:37;94840.19;;;28.31;28.67
6136;BME280;24008;42.664;23.372;2023-09-12T12:18:04;94832.00;;;28.28;28.77
6136;BME280;24008;42.664;23.372;2023-09-12T12:20:31;94828.88;;;28.31;28.96
6136;BME280;24008;42.664;23.372;2023-09-12T12:22:58;94825.47;;;28.30;29.10
6136;BME280;24008;42.664;23.372;2023-09-12T12:25:26;94865.63;;;28.53;28.92
6136;BME280;24008;42.664;23.372;2023-09-12T12:27:53;94848.41;;;28.13;29.03
6136;BME280;24008;42.664;23.372;2023-09-12T12:30:19;94858.38;;;28.33;28.67
6136;BME280;24008;42.664;23.372;2023-09-12T12:32:47;94853.59;;;28.30;28.46
6136;BME280;24008;42.664;23.372;2023-09-12T12:35:17;94612.22;;;26.66;28.96
6136;BME280;24008;42.664;23.372;2023-09-12T12:37:45;94657.13;;;26.91;29.29
6136;BME280;24008;42.664;23.372;2023-09-12T12:40:12;94859.09;;;28.07;29.03
6136;BME280;24008;42.664;23.372;2023-09-12T12:42:41;94859.09;;;28.07;29.03
6136;BME280;24008;42.664;23.372;2023-09-12T12:45:13;94856.66;;;28.22;29.08
6136;BME280;24008;42.664;23.372;2023-09-12T12:47:40;94812.00;;;28.00;28.58
6136;BME280;24008;42.664;23.372;2023-09-12T12:50:08;94861.53;;;28.35;28.44
6136;BME280;24008;42.664;23.372;2023-09-12T12:52:37;94708.66;;;27.41;28.11
6136;BME280;24008;42.664;23.372;2023-09-12T12:55:05;94845.78;;;28.35;28.09
6136;BME280;24008;42.664;23.372;2023-09-12T12:57:31;94781.94;;;27.91;27.89
6136;BME280;24008;42.664;23.372;2023-09-12T13:00:00;94810.16;;;28.01;28.23
6136;BME280;24008;42.664;23.372;2023-09-12T13:02:28;94798.50;;;27.91;28.29
6136;BME280;24008;42.664;23.372;2023-09-12T13:04:55;94819.69;;;28.07;28.75
6136;BME280;24008;42.664;23.372;2023-09-12T13:07:21;94845.66;;;28.25;28.20